createdAt,value
2024-01-04T00:00:24.692Z,99416.38
2024-01-04T00:00:56.388Z,99421.41
2024-01-04T00:01:27.819Z,99428.75
2024-01-04T00:01:59.279Z,99426.06
2024-01-04T00:02:31.964Z,99425.28
2024-01-04T00:03:03.709Z,99428.75
2024-01-04T00:03:35.156Z,99435.75
2024-01-04T00:04:06.590Z,99430.31
2024-01-04T00:04:40.306Z,99433.81
2024-01-04T00:05:11.825Z,99437.28
2024-01-04T00:05:43.262Z,99437.28
2024-01-04T00:06:33.612Z,99443.09
2024-01-04T00:07:05.084Z,99440.00
2024-01-04T00:07:36.614Z,99446.19
2024-01-04T00:08:08.023Z,99442.72
2024-01-04T00:08:39.580Z,99435.75
2024-01-04T00:09:12.509Z,99451.63
2024-01-04T00:09:44.037Z,99448.13
2024-01-04T00:10:16.027Z,99445.44
2024-01-04T00:11:07.615Z,99453.94
2024-01-04T00:11:39.114Z,99450.47
2024-01-04T00:12:59.871Z,99450.47
2024-01-04T00:13:31.414Z,99455.09
2024-01-04T00:14:03.924Z,99458.59
2024-01-04T00:14:35.389Z,99464.78
2024-01-04T00:15:07.883Z,99462.09
2024-01-04T00:15:39.430Z,99458.22
2024-01-04T00:16:14.398Z,99459.38
2024-01-04T00:16:45.905Z,99469.06
2024-01-04T00:17:17.538Z,99467.50
2024-01-04T00:17:49.129Z,99462.47
2024-01-04T00:18:20.938Z,99464.03
2024-01-04T00:18:53.079Z,99460.53
2024-01-04T00:19:25.001Z,99461.69
2024-01-04T00:19:56.853Z,99460.53
2024-01-04T00:20:28.301Z,99458.22
2024-01-04T00:20:59.841Z,99461.69
2024-01-04T00:21:31.455Z,99464.41
2024-01-04T00:22:02.975Z,99465.97
2024-01-04T00:22:34.446Z,99464.41
2024-01-04T00:23:05.921Z,99472.53
2024-01-04T00:23:38.536Z,99466.34
2024-01-04T00:24:10.140Z,99464.41
2024-01-04T00:24:41.611Z,99469.06
2024-01-04T00:25:13.130Z,99470.22
2024-01-04T00:25:44.543Z,99465.19
2024-01-04T00:26:16.054Z,99476.81
2024-01-04T00:26:47.498Z,99476.41
2024-01-04T00:27:19.108Z,99477.59
2024-01-04T00:27:50.583Z,99477.59
2024-01-04T00:28:22.025Z,99481.06
2024-01-04T00:28:53.653Z,99480.28
2024-01-04T00:29:25.205Z,99483.00
2024-01-04T00:29:56.780Z,99484.16
2024-01-04T00:30:28.670Z,99489.59
2024-01-04T00:31:00.244Z,99492.31
2024-01-04T00:31:32.259Z,99492.31
2024-01-04T00:32:04.050Z,99489.19
2024-01-04T00:32:35.669Z,99490.75
2024-01-04T00:33:07.364Z,99492.69
2024-01-04T00:33:39.061Z,99496.19
2024-01-04T00:34:10.970Z,99498.88
2024-01-04T00:34:42.549Z,99495.41
2024-01-04T00:35:14.174Z,99502.75
2024-01-04T00:35:45.620Z,99489.59
2024-01-04T00:36:17.179Z,99491.53
2024-01-04T00:36:48.649Z,99497.72
2024-01-04T00:37:22.821Z,99498.88
2024-01-04T00:37:54.852Z,99498.09
2024-01-04T00:38:26.368Z,99499.66
2024-01-04T00:38:57.973Z,99493.47
2024-01-04T00:39:29.492Z,99501.97
2024-01-04T00:40:00.983Z,99503.16
2024-01-04T00:40:33.971Z,99501.22
2024-01-04T00:41:05.557Z,99510.13
2024-01-04T00:41:37.162Z,99505.47
2024-01-04T00:42:08.779Z,99502.75
2024-01-04T00:42:40.676Z,99502.38
2024-01-04T00:43:12.104Z,99510.50
2024-01-04T00:43:43.922Z,99508.56
2024-01-04T00:44:15.369Z,99511.28
2024-01-04T00:44:46.815Z,99514.00
2024-01-04T00:45:18.270Z,99515.94
2024-01-04T00:45:49.704Z,99520.97
2024-01-04T00:46:21.277Z,99526.41
2024-01-04T00:46:52.784Z,99531.03
2024-01-04T00:47:24.319Z,99529.88
2024-01-04T00:47:55.797Z,99529.88
2024-01-04T00:48:27.327Z,99528.72
2024-01-04T00:48:58.918Z,99534.16
2024-01-04T00:49:32.294Z,99527.94
2024-01-04T00:50:04.062Z,99532.59
2024-01-04T00:50:35.554Z,99534.53
2024-01-04T00:51:07.168Z,99531.81
2024-01-04T00:51:38.693Z,99530.28
2024-01-04T00:52:10.086Z,99539.97
2024-01-04T00:53:30.693Z,99532.97
2024-01-04T00:54:03.065Z,99534.16
2024-01-04T00:54:34.804Z,99541.13
2024-01-04T00:55:06.691Z,99544.22
2024-01-04T00:55:38.353Z,99542.28
2024-01-04T00:56:09.872Z,99546.16
2024-01-04T00:56:41.403Z,99542.66
2024-01-04T00:57:31.451Z,99539.56
2024-01-04T00:58:04.919Z,99543.84
2024-01-04T00:58:55.136Z,99541.13
2024-01-04T00:59:27.100Z,99547.72
2024-01-04T00:59:58.644Z,99539.56
2024-01-04T01:00:30.768Z,99540.72
2024-01-04T01:01:05.085Z,99547.72
2024-01-04T01:01:36.609Z,99544.59
2024-01-04T01:02:56.920Z,99549.25
2024-01-04T01:03:28.465Z,99548.09
2024-01-04T01:04:01.288Z,99549.25
2024-01-04T01:04:32.802Z,99554.28
2024-01-04T01:05:04.598Z,99556.22
2024-01-04T01:06:25.017Z,99564.34
2024-01-04T01:06:56.503Z,99566.28
2024-01-04T01:07:28.080Z,99570.16
2024-01-04T01:08:02.488Z,99574.44
2024-01-04T01:08:52.726Z,99572.50
2024-01-04T01:09:24.310Z,99573.28
2024-01-04T01:09:55.840Z,99572.50
2024-01-04T01:10:27.668Z,99569.78
2024-01-04T01:10:59.136Z,99567.47
2024-01-04T01:11:30.648Z,99573.66
2024-01-04T01:12:02.193Z,99570.16
2024-01-04T01:12:33.655Z,99572.09
2024-01-04T01:13:05.147Z,99572.09
2024-01-04T01:13:36.629Z,99572.88
2024-01-04T01:14:09.314Z,99572.09
2024-01-04T01:14:42.467Z,99581.00
2024-01-04T01:15:14.058Z,99589.16
2024-01-04T01:15:45.555Z,99577.91
2024-01-04T01:16:17.029Z,99584.13
2024-01-04T01:16:48.516Z,99578.69
2024-01-04T01:17:20.023Z,99591.09
2024-01-04T01:17:51.763Z,99590.31
2024-01-04T01:18:23.478Z,99586.84
2024-01-04T01:18:55.188Z,99588.00
2024-01-04T01:19:26.991Z,99600.00
2024-01-04T01:19:58.887Z,99593.81
2024-01-04T01:20:30.407Z,99590.31
2024-01-04T01:21:01.889Z,99591.88
2024-01-04T01:21:33.382Z,99594.97
2024-01-04T01:22:04.784Z,99596.91
2024-01-04T01:22:36.267Z,99600.75
2024-01-04T01:23:08.414Z,99602.31
2024-01-04T01:23:39.911Z,99611.63
2024-01-04T01:24:11.458Z,99606.59
2024-01-04T01:24:43.052Z,99599.59
2024-01-04T01:25:14.614Z,99606.19
2024-01-04T01:25:46.121Z,99602.31
2024-01-04T01:26:17.537Z,99605.81
2024-01-04T01:26:49.203Z,99612.78
2024-01-04T01:27:20.772Z,99615.13
2024-01-04T01:27:52.254Z,99617.06
2024-01-04T01:28:24.221Z,99614.72
2024-01-04T01:28:55.701Z,99613.94
2024-01-04T01:29:27.301Z,99615.13
2024-01-04T01:29:58.883Z,99606.22
2024-01-04T01:30:30.642Z,99615.13
2024-01-04T01:31:03.115Z,99617.06
2024-01-04T01:31:40.956Z,99615.13
2024-01-04T01:32:13.065Z,99615.50
2024-01-04T01:32:44.640Z,99616.28
2024-01-04T01:33:16.229Z,99622.09
2024-01-04T01:34:06.283Z,99618.59
2024-01-04T01:34:37.900Z,99622.88
2024-01-04T01:35:10.024Z,99618.22
2024-01-04T01:35:41.675Z,99616.66
2024-01-04T01:36:13.327Z,99617.81
2024-01-04T01:37:03.352Z,99623.66
2024-01-04T01:37:35.949Z,99620.16
2024-01-04T01:38:07.428Z,99629.44
2024-01-04T01:38:39.618Z,99627.91
2024-01-04T01:39:12.224Z,99628.66
2024-01-04T01:39:43.885Z,99630.59
2024-01-04T01:40:15.422Z,99631.00
2024-01-04T01:40:46.848Z,99632.53
2024-01-04T01:41:37.017Z,99631.00
2024-01-04T01:42:08.736Z,99636.81
2024-01-04T01:42:40.344Z,99639.53
2024-01-04T01:43:12.488Z,99636.41
2024-01-04T01:43:43.907Z,99631.00
2024-01-04T01:44:15.284Z,99641.47
2024-01-04T01:44:46.724Z,99637.19
2024-01-04T01:45:18.683Z,99641.06
2024-01-04T01:45:50.416Z,99640.66
2024-01-04T01:46:22.703Z,99641.81
2024-01-04T01:47:46.527Z,99635.63
2024-01-04T01:48:18.319Z,99640.28
2024-01-04T01:48:49.972Z,99641.06
2024-01-04T01:49:21.746Z,99637.19
2024-01-04T01:49:54.723Z,99642.59
2024-01-04T01:50:26.695Z,99642.97
2024-01-04T01:50:59.297Z,99648.78
2024-01-04T01:51:31.297Z,99651.50
2024-01-04T01:52:02.937Z,99651.50
2024-01-04T01:52:37.249Z,99654.22
2024-01-04T01:53:09.121Z,99645.69
2024-01-04T01:53:41.384Z,99652.63
2024-01-04T01:54:13.668Z,99653.03
2024-01-04T01:54:47.551Z,99651.09
2024-01-04T01:55:20.533Z,99653.03
2024-01-04T01:55:52.075Z,99649.91
2024-01-04T01:56:23.639Z,99657.66
2024-01-04T01:56:56.007Z,99654.19
2024-01-04T01:57:28.678Z,99658.03
2024-01-04T01:58:00.740Z,99661.53
2024-01-04T01:58:32.170Z,99657.28
2024-01-04T01:59:09.190Z,99657.66
2024-01-04T01:59:45.112Z,99658.81
2024-01-04T02:00:17.314Z,99665.78
2024-01-04T02:00:49.165Z,99669.66
2024-01-04T02:01:20.866Z,99666.16
2024-01-04T02:01:52.579Z,99672.75
2024-01-04T02:02:24.872Z,99670.03
2024-01-04T02:02:58.076Z,99674.72
2024-01-04T02:03:29.731Z,99675.44
2024-01-04T02:04:01.295Z,99671.22
2024-01-04T02:04:32.931Z,99677.78
2024-01-04T02:05:04.743Z,99672.75
2024-01-04T02:05:36.255Z,99677.41
2024-01-04T02:06:08.190Z,99680.88
2024-01-04T02:06:39.870Z,99675.84
2024-01-04T02:07:11.607Z,99686.69
2024-01-04T02:07:45.008Z,99680.88
2024-01-04T02:08:16.594Z,99687.84
2024-01-04T02:08:50.356Z,99686.69
2024-01-04T02:09:21.987Z,99686.69
2024-01-04T02:09:53.492Z,99683.59
2024-01-04T02:10:24.984Z,99685.16
2024-01-04T02:10:56.377Z,99685.94
2024-01-04T02:11:27.965Z,99691.34
2024-01-04T02:12:06.786Z,99684.00
2024-01-04T02:12:39.291Z,99687.47
2024-01-04T02:13:11.448Z,99684.78
2024-01-04T02:13:44.116Z,99694.84
2024-01-04T02:14:15.549Z,99695.63
2024-01-04T02:14:47.113Z,99685.94
2024-01-04T02:15:19.187Z,99690.56
2024-01-04T02:15:50.820Z,99693.28
2024-01-04T02:16:22.423Z,99690.56
2024-01-04T02:16:53.880Z,99692.50
2024-01-04T02:17:26.986Z,99695.22
2024-01-04T02:17:58.813Z,99700.63
2024-01-04T02:18:30.605Z,99697.16
2024-01-04T02:19:02.310Z,99695.22
2024-01-04T02:19:34.179Z,99699.84
2024-01-04T02:20:25.148Z,99700.63
2024-01-04T02:20:56.619Z,99696.38
2024-01-04T02:21:28.034Z,99706.81
2024-01-04T02:21:59.957Z,99706.03
2024-01-04T02:22:31.407Z,99700.63
2024-01-04T02:23:05.144Z,99706.03
2024-01-04T02:23:36.876Z,99704.47
2024-01-04T02:24:08.435Z,99710.28
2024-01-04T02:24:39.873Z,99704.84
2024-01-04T02:25:11.545Z,99711.44
2024-01-04T02:25:43.157Z,99709.88
2024-01-04T02:26:14.588Z,99714.53
2024-01-04T02:26:46.132Z,99715.31
2024-01-04T02:27:18.298Z,99712.97
2024-01-04T02:27:49.722Z,99715.69
2024-01-04T02:28:21.118Z,99723.81
2024-01-04T02:28:52.551Z,99718.38
2024-01-04T02:29:24.028Z,99719.16
2024-01-04T02:30:14.333Z,99712.19
2024-01-04T02:30:46.162Z,99724.59
2024-01-04T02:31:17.637Z,99723.81
2024-01-04T02:31:52.230Z,99723.03
2024-01-04T02:32:23.943Z,99721.09
2024-01-04T02:32:55.666Z,99721.88
2024-01-04T02:33:27.301Z,99723.81
2024-01-04T02:33:58.872Z,99730.78
2024-01-04T02:34:31.505Z,99727.28
2024-01-04T02:35:03.156Z,99730.00
2024-01-04T02:35:34.699Z,99726.53
2024-01-04T02:36:06.562Z,99733.50
2024-01-04T02:36:38.110Z,99729.22
2024-01-04T02:37:09.586Z,99731.56
2024-01-04T02:37:41.083Z,99726.91
2024-01-04T02:38:12.600Z,99731.19
2024-01-04T02:38:44.041Z,99727.69
2024-01-04T02:39:15.513Z,99728.06
2024-01-04T02:39:46.902Z,99730.78
2024-01-04T02:40:18.362Z,99730.00
2024-01-04T02:40:49.833Z,99730.00
2024-01-04T02:41:21.425Z,99731.56
2024-01-04T02:41:52.935Z,99743.97
2024-01-04T02:42:24.424Z,99744.34
2024-01-04T02:42:55.876Z,99732.72
2024-01-04T02:43:27.313Z,99741.63
2024-01-04T02:43:58.785Z,99744.34
2024-01-04T02:44:30.244Z,99739.69
2024-01-04T02:45:01.749Z,99738.13
2024-01-04T02:45:33.289Z,99744.34
2024-01-04T02:46:04.761Z,99738.91
2024-01-04T02:46:36.397Z,99740.47
2024-01-04T02:47:07.815Z,99747.81
2024-01-04T02:47:39.360Z,99742.41
2024-01-04T02:48:11.033Z,99748.59
2024-01-04T02:48:42.619Z,99747.81
2024-01-04T02:49:14.282Z,99746.28
2024-01-04T02:49:46.065Z,99754.41
2024-01-04T02:50:19.710Z,99752.47
2024-01-04T02:50:51.330Z,99746.28
2024-01-04T02:51:22.819Z,99754.41
2024-01-04T02:51:54.282Z,99748.19
2024-01-04T02:52:25.683Z,99757.09
2024-01-04T02:52:57.125Z,99754.41
2024-01-04T02:53:47.381Z,99757.88
2024-01-04T02:54:18.925Z,99760.59
2024-01-04T02:54:50.590Z,99761.38
2024-01-04T02:55:22.053Z,99761.75
2024-01-04T02:55:53.566Z,99758.25
2024-01-04T02:56:25.138Z,99763.31
2024-01-04T02:56:56.732Z,99763.31
2024-01-04T02:57:28.235Z,99764.09
2024-01-04T02:57:59.638Z,99767.16
2024-01-04T02:58:31.095Z,99766.78
2024-01-04T02:59:02.587Z,99766.78
2024-01-04T02:59:34.055Z,99771.06
2024-01-04T03:00:06.690Z,99762.16
2024-01-04T03:00:38.185Z,99763.72
2024-01-04T03:01:09.721Z,99769.13
2024-01-04T03:01:43.377Z,99760.59
2024-01-04T03:02:16.319Z,99764.09
2024-01-04T03:02:47.792Z,99768.34
2024-01-04T03:03:19.456Z,99771.06
2024-01-04T03:03:56.744Z,99767.56
2024-01-04T03:04:28.379Z,99764.88
2024-01-04T03:04:59.892Z,99770.28
2024-01-04T03:05:31.306Z,99769.13
2024-01-04T03:06:02.871Z,99766.41
2024-01-04T03:06:35.491Z,99762.94
2024-01-04T03:07:07.462Z,99765.25
2024-01-04T03:07:38.933Z,99768.75
2024-01-04T03:08:10.537Z,99771.47
2024-01-04T03:08:42.093Z,99774.94
2024-01-04T03:09:13.591Z,99770.31
2024-01-04T03:09:45.118Z,99772.25
2024-01-04T03:10:16.577Z,99773.81
2024-01-04T03:10:47.988Z,99773.41
2024-01-04T03:11:19.453Z,99774.19
2024-01-04T03:11:50.947Z,99776.09
2024-01-04T03:12:40.817Z,99781.94
2024-01-04T03:13:12.292Z,99774.19
2024-01-04T03:13:44.123Z,99780.38
2024-01-04T03:14:15.579Z,99784.25
2024-01-04T03:14:47.064Z,99779.59
2024-01-04T03:15:18.583Z,99778.44
2024-01-04T03:16:08.874Z,99775.72
2024-01-04T03:16:41.244Z,99783.88
2024-01-04T03:17:12.718Z,99783.09
2024-01-04T03:17:44.310Z,99780.38
2024-01-04T03:18:15.931Z,99789.66
2024-01-04T03:18:47.985Z,99780.38
2024-01-04T03:19:19.669Z,99788.91
2024-01-04T03:19:51.233Z,99788.91
2024-01-04T03:20:41.448Z,99785.03
2024-01-04T03:21:13.030Z,99789.69
2024-01-04T03:21:44.477Z,99790.84
2024-01-04T03:22:15.877Z,99800.91
2024-01-04T03:22:47.329Z,99793.94
2024-01-04T03:23:18.807Z,99788.50
2024-01-04T03:23:50.323Z,99793.94
2024-01-04T03:24:21.798Z,99790.06
2024-01-04T03:24:53.233Z,99797.41
2024-01-04T03:25:24.739Z,99794.72
2024-01-04T03:25:56.304Z,99795.50
2024-01-04T03:26:27.816Z,99798.19
2024-01-04T03:26:59.328Z,99795.50
2024-01-04T03:27:49.736Z,99792.78
2024-01-04T03:28:21.261Z,99801.31
2024-01-04T03:28:52.742Z,99802.47
2024-01-04T03:29:24.183Z,99797.03
2024-01-04T03:29:57.071Z,99802.47
2024-01-04T03:30:28.733Z,99799.75
2024-01-04T03:31:00.294Z,99802.47
2024-01-04T03:31:31.806Z,99801.69
2024-01-04T03:32:04.174Z,99801.69
2024-01-04T03:32:35.726Z,99802.84
2024-01-04T03:33:07.505Z,99802.06
2024-01-04T03:33:39.151Z,99803.22
2024-01-04T03:34:29.410Z,99795.88
2024-01-04T03:35:01.228Z,99805.94
2024-01-04T03:35:32.872Z,99800.50
2024-01-04T03:36:04.673Z,99802.44
2024-01-04T03:36:36.138Z,99803.22
2024-01-04T03:37:07.638Z,99802.06
2024-01-04T03:37:39.113Z,99799.34
2024-01-04T03:38:10.713Z,99805.94
2024-01-04T03:38:42.267Z,99803.22
2024-01-04T03:39:32.454Z,99812.13
2024-01-04T03:40:04.277Z,99810.19
2024-01-04T03:40:35.762Z,99816.00
2024-01-04T03:41:25.746Z,99811.34
2024-01-04T03:41:57.257Z,99811.34
2024-01-04T03:42:28.850Z,99821.41
2024-01-04T03:43:00.372Z,99813.28
2024-01-04T03:43:32.687Z,99815.22
2024-01-04T03:44:04.265Z,99820.25
2024-01-04T03:44:37.572Z,99818.69
2024-01-04T03:45:09.316Z,99829.16
2024-01-04T03:45:40.906Z,99826.47
2024-01-04T03:46:14.818Z,99826.47
2024-01-04T03:46:47.138Z,99832.66
2024-01-04T03:47:18.615Z,99829.94
2024-01-04T03:48:09.375Z,99829.94
2024-01-04T03:48:41.121Z,99834.22
2024-01-04T03:49:13.030Z,99839.63
2024-01-04T03:49:44.610Z,99832.66
2024-01-04T03:50:16.433Z,99839.25
2024-01-04T03:50:47.977Z,99840.41
2024-01-04T03:51:19.511Z,99836.91
2024-01-04T03:51:52.078Z,99839.63
2024-01-04T03:52:25.965Z,99831.91
2024-01-04T03:52:57.756Z,99836.53
2024-01-04T03:53:29.369Z,99826.09
2024-01-04T03:54:01.282Z,99832.28
2024-01-04T03:54:32.940Z,99823.78
2024-01-04T03:55:23.615Z,99830.34
2024-01-04T03:55:55.197Z,99833.06
2024-01-04T03:56:26.873Z,99832.28
2024-01-04T03:56:58.523Z,99832.28
2024-01-04T03:57:30.208Z,99820.66
2024-01-04T03:58:01.706Z,99821.44
2024-01-04T03:58:34.109Z,99822.22
2024-01-04T03:59:05.623Z,99822.22
2024-01-04T03:59:38.285Z,99834.63
2024-01-04T04:00:10.611Z,99831.91
2024-01-04T04:00:42.179Z,99821.44
2024-01-04T04:01:13.812Z,99829.97
2024-01-04T04:01:46.322Z,99833.06
2024-01-04T04:02:17.783Z,99829.97
2024-01-04T04:02:49.320Z,99831.13
2024-01-04T04:03:20.955Z,99833.84
2024-01-04T04:03:52.477Z,99820.28
2024-01-04T04:04:25.523Z,99839.25
2024-01-04T04:04:57.589Z,99835.41
2024-01-04T04:05:29.153Z,99827.25
2024-01-04T04:06:05.937Z,99836.94
2024-01-04T04:06:37.515Z,99837.72
2024-01-04T04:07:11.206Z,99841.59
2024-01-04T04:07:42.661Z,99843.16
2024-01-04T04:08:14.125Z,99843.94
2024-01-04T04:08:45.633Z,99834.25
2024-01-04T04:09:35.986Z,99841.59
2024-01-04T04:10:09.506Z,99845.88
2024-01-04T04:10:41.841Z,99839.66
2024-01-04T04:11:19.515Z,99847.03
2024-01-04T04:11:51.131Z,99840.81
2024-01-04T04:12:23.437Z,99846.25
2024-01-04T04:12:54.973Z,99843.53
2024-01-04T04:13:26.689Z,99848.94
2024-01-04T04:13:58.240Z,99846.25
2024-01-04T04:14:29.781Z,99845.09
2024-01-04T04:15:03.220Z,99847.78
2024-01-04T04:15:36.349Z,99859.41
2024-01-04T04:16:07.786Z,99845.88
2024-01-04T04:16:42.414Z,99847.78
2024-01-04T04:17:15.315Z,99862.13
2024-01-04T04:18:05.451Z,99854.78
2024-01-04T04:18:37.079Z,99856.34
2024-01-04T04:19:09.456Z,99857.84
2024-01-04T04:19:41.094Z,99857.09
2024-01-04T04:20:31.248Z,99856.72
2024-01-04T04:21:02.823Z,99859.03
2024-01-04T04:21:34.557Z,99862.50
2024-01-04T04:22:54.650Z,99854.38
2024-01-04T04:23:26.161Z,99861.75
2024-01-04T04:23:57.655Z,99866.41
2024-01-04T04:24:29.151Z,99866.41
2024-01-04T04:25:00.701Z,99860.97
2024-01-04T04:25:32.154Z,99862.50
2024-01-04T04:26:06.540Z,99863.28
2024-01-04T04:26:38.073Z,99865.22
2024-01-04T04:27:09.535Z,99867.16
2024-01-04T04:27:40.965Z,99864.84
2024-01-04T04:28:14.187Z,99868.69
2024-01-04T04:28:45.668Z,99864.06
2024-01-04T04:29:17.089Z,99871.41
2024-01-04T04:29:48.652Z,99868.69
2024-01-04T04:30:21.024Z,99874.13
2024-01-04T04:30:52.769Z,99869.47
2024-01-04T04:31:24.751Z,99867.56
2024-01-04T04:31:56.659Z,99874.53
2024-01-04T04:32:28.166Z,99876.47
2024-01-04T04:32:59.769Z,99881.88
2024-01-04T04:33:31.389Z,99881.88
2024-01-04T04:34:03.272Z,99883.81
2024-01-04T04:34:35.771Z,99879.16
2024-01-04T04:35:07.436Z,99888.47
2024-01-04T04:35:47.713Z,99884.59
2024-01-04T04:36:26.955Z,99884.59
2024-01-04T04:36:58.419Z,99877.63
2024-01-04T04:37:29.887Z,99886.16
2024-01-04T04:38:01.390Z,99889.25
2024-01-04T04:38:33.963Z,99888.09
2024-01-04T04:39:05.567Z,99882.66
2024-01-04T04:39:37.134Z,99886.16
2024-01-04T04:40:11.621Z,99890.38
2024-01-04T04:40:44.506Z,99893.09
2024-01-04T04:41:15.901Z,99891.16
2024-01-04T04:42:06.024Z,99891.16
2024-01-04T04:42:37.537Z,99890.78
2024-01-04T04:43:09.086Z,99894.66
2024-01-04T04:43:40.568Z,99886.53
2024-01-04T04:44:12.056Z,99897.38
2024-01-04T04:44:43.504Z,99891.94
2024-01-04T04:45:15.162Z,99894.66
2024-01-04T04:45:46.573Z,99888.09
2024-01-04T04:46:19.742Z,99893.50
2024-01-04T04:46:51.198Z,99899.72
2024-01-04T04:47:22.754Z,99893.50
2024-01-04T04:47:54.309Z,99893.50
2024-01-04T04:48:26.494Z,99898.94
2024-01-04T04:49:16.908Z,99892.34
2024-01-04T04:50:07.143Z,99896.63
2024-01-04T04:50:38.689Z,99896.63
2024-01-04T04:51:11.217Z,99900.50
2024-01-04T04:51:45.801Z,99907.06
2024-01-04T04:52:17.188Z,99902.41
2024-01-04T04:52:48.566Z,99905.91
2024-01-04T04:53:20.245Z,99905.13
2024-01-04T04:53:52.391Z,99899.72
2024-01-04T04:54:42.485Z,99907.84
2024-01-04T04:55:13.981Z,99913.25
2024-01-04T04:55:45.585Z,99909.78
2024-01-04T04:56:17.004Z,99913.25
2024-01-04T04:56:48.508Z,99915.19
2024-01-04T04:57:38.591Z,99909.00
2024-01-04T04:58:10.113Z,99905.50
2024-01-04T04:58:41.587Z,99903.94
2024-01-04T04:59:13.965Z,99902.00
2024-01-04T04:59:45.984Z,99904.72
2024-01-04T05:00:18.130Z,99903.94
2024-01-04T05:00:49.648Z,99907.44
2024-01-04T05:01:21.185Z,99903.94
2024-01-04T05:01:52.642Z,99914.41
2024-01-04T05:02:24.337Z,99912.06
2024-01-04T05:02:55.866Z,99910.16
2024-01-04T05:03:27.581Z,99913.63
2024-01-04T05:03:59.121Z,99912.06
2024-01-04T05:04:49.187Z,99918.28
2024-01-04T05:05:20.766Z,99907.44
2024-01-04T05:05:52.791Z,99921.78
2024-01-04T05:06:24.416Z,99921.78
2024-01-04T05:06:55.972Z,99918.28
2024-01-04T05:07:27.435Z,99924.47
2024-01-04T05:07:58.917Z,99923.69
2024-01-04T05:08:30.518Z,99919.06
2024-01-04T05:09:01.972Z,99923.69
2024-01-04T05:09:33.440Z,99915.56
2024-01-04T05:10:05.497Z,99910.94
2024-01-04T05:10:36.939Z,99926.41
2024-01-04T05:11:08.429Z,99923.69
2024-01-04T05:11:39.910Z,99924.84
2024-01-04T05:12:11.539Z,99925.63
2024-01-04T05:12:43.028Z,99916.72
2024-01-04T05:13:33.094Z,99926.41
2024-01-04T05:14:04.611Z,99921.78
2024-01-04T05:14:36.181Z,99928.34
2024-01-04T05:15:07.918Z,99927.56
2024-01-04T05:15:39.452Z,99928.75
2024-01-04T05:16:12.161Z,99934.16
2024-01-04T05:16:45.327Z,99933.38
2024-01-04T05:17:16.880Z,99939.19
2024-01-04T05:17:48.772Z,99938.41
2024-01-04T05:18:20.460Z,99939.19
2024-01-04T05:18:52.207Z,99935.69
2024-01-04T05:19:23.981Z,99933.00
2024-01-04T05:19:55.666Z,99937.25
2024-01-04T05:20:27.083Z,99935.31
2024-01-04T05:20:59.249Z,99936.88
2024-01-04T05:22:25.956Z,99941.53
2024-01-04T05:22:58.356Z,99944.25
2024-01-04T05:23:29.784Z,99944.25
2024-01-04T05:24:01.263Z,99948.09
2024-01-04T05:24:32.730Z,99943.84
2024-01-04T05:25:04.549Z,99953.53
2024-01-04T05:25:37.770Z,99947.31
2024-01-04T05:26:20.862Z,99945.38
2024-01-04T05:26:52.409Z,99948.09
2024-01-04T05:27:24.282Z,99949.66
2024-01-04T05:27:55.806Z,99946.16
2024-01-04T05:28:27.329Z,99949.66
2024-01-04T05:28:58.766Z,99941.53
2024-01-04T05:29:30.207Z,99941.91
2024-01-04T05:30:02.409Z,99936.47
2024-01-04T05:30:34.049Z,99942.31
2024-01-04T05:31:05.573Z,99945.38
2024-01-04T05:31:37.114Z,99949.66
2024-01-04T05:32:08.904Z,99945.38
2024-01-04T05:32:40.596Z,99945.00
2024-01-04T05:33:12.312Z,99943.47
2024-01-04T05:33:44.169Z,99950.81
2024-01-04T05:34:16.064Z,99943.09
2024-01-04T05:34:47.689Z,99943.47
2024-01-04T05:35:19.203Z,99950.81
2024-01-04T05:35:52.490Z,99947.31
2024-01-04T05:36:24.495Z,99945.38
2024-01-04T05:36:55.950Z,99951.97
2024-01-04T05:37:27.428Z,99947.31
2024-01-04T05:37:58.906Z,99945.78
2024-01-04T05:38:30.315Z,99948.09
2024-01-04T05:39:01.799Z,99951.22
2024-01-04T05:39:33.295Z,99952.38
2024-01-04T05:40:05.344Z,99952.38
2024-01-04T05:40:36.842Z,99958.56
2024-01-04T05:41:08.329Z,99959.34
2024-01-04T05:41:39.920Z,99962.06
2024-01-04T05:42:11.595Z,99959.34
2024-01-04T05:42:43.171Z,99964.78
2024-01-04T05:43:14.722Z,99964.78
2024-01-04T05:43:46.448Z,99970.19
2024-01-04T05:44:18.501Z,99965.56
2024-01-04T05:44:50.011Z,99970.97
2024-01-04T05:45:21.566Z,99958.19
2024-01-04T05:45:53.060Z,99969.81
2024-01-04T05:46:24.562Z,99960.91
2024-01-04T05:46:56.240Z,99965.56
2024-01-04T05:47:27.895Z,99970.19
2024-01-04T05:47:59.576Z,99982.97
2024-01-04T05:48:32.042Z,99976.78
2024-01-04T05:49:22.277Z,99981.03
2024-01-04T05:49:53.876Z,99984.53
2024-01-04T05:50:25.494Z,99980.25
2024-01-04T05:50:57.041Z,99980.25
2024-01-04T05:51:41.601Z,99984.91
2024-01-04T05:52:14.718Z,99984.53
2024-01-04T05:52:46.215Z,99984.53
2024-01-04T05:53:18.545Z,99982.97
2024-01-04T05:53:50.191Z,99986.47
2024-01-04T05:54:21.788Z,99991.88
2024-01-04T05:54:53.456Z,99988.41
2024-01-04T05:55:24.971Z,99985.69
2024-01-04T05:55:56.469Z,99983.75
2024-01-04T05:56:28.719Z,99995.75
2024-01-04T05:57:00.353Z,100000.81
2024-01-04T05:57:32.208Z,99988.41
2024-01-04T05:58:22.180Z,99998.88
2024-01-04T05:58:53.688Z,99995.00
2024-01-04T05:59:26.137Z,99998.09
2024-01-04T05:59:57.872Z,100000.81
2024-01-04T06:00:29.527Z,100005.06
2024-01-04T06:01:01.125Z,99989.97
2024-01-04T06:01:32.597Z,99997.31
2024-01-04T06:02:04.160Z,100001.56
2024-01-04T06:02:35.691Z,100001.56
2024-01-04T06:03:07.297Z,99998.09
2024-01-04T06:03:38.960Z,99999.66
2024-01-04T06:04:10.521Z,99993.44
2024-01-04T06:04:42.090Z,100000.81
2024-01-04T06:05:13.846Z,100000.44
2024-01-04T06:05:45.506Z,100004.28
2024-01-04T06:06:17.150Z,99998.09
2024-01-04T06:06:48.749Z,100005.84
2024-01-04T06:07:20.447Z,99998.09
2024-01-04T06:07:51.953Z,99998.88
2024-01-04T06:08:23.490Z,99998.88
2024-01-04T06:08:55.046Z,99992.66
2024-01-04T06:09:27.220Z,99996.53
2024-01-04T06:09:58.787Z,99998.09
2024-01-04T06:10:30.265Z,99998.88
2024-01-04T06:11:01.856Z,99995.38
2024-01-04T06:11:33.405Z,100002.72
2024-01-04T06:12:23.818Z,100000.81
2024-01-04T06:12:55.484Z,100005.06
2024-01-04T06:13:28.044Z,99993.81
2024-01-04T06:13:59.784Z,100003.50
2024-01-04T06:14:32.051Z,100000.41
2024-01-04T06:15:06.983Z,100005.44
2024-01-04T06:15:38.511Z,99997.69
2024-01-04T06:16:10.252Z,100000.03
2024-01-04T06:16:41.753Z,100002.72
2024-01-04T06:17:13.372Z,100001.94
2024-01-04T06:17:44.983Z,100007.38
2024-01-04T06:18:16.619Z,100001.94
2024-01-04T06:18:48.284Z,100008.16
2024-01-04T06:19:19.837Z,100010.88
2024-01-04T06:19:51.527Z,100007.38
2024-01-04T06:20:22.983Z,100010.09
2024-01-04T06:20:54.557Z,100007.38
2024-01-04T06:21:44.496Z,100013.22
2024-01-04T06:22:34.857Z,100017.84
2024-01-04T06:23:06.483Z,100008.94
2024-01-04T06:23:38.042Z,100014.72
2024-01-04T06:24:09.689Z,100016.28
2024-01-04T06:24:41.276Z,100020.16
2024-01-04T06:25:32.006Z,100017.44
2024-01-04T06:26:03.568Z,100018.22
2024-01-04T06:26:35.337Z,100017.44
2024-01-04T06:27:06.907Z,100023.63
2024-01-04T06:27:38.570Z,100025.19
2024-01-04T06:28:10.162Z,100032.56
2024-01-04T06:29:00.359Z,100028.69
2024-01-04T06:29:32.579Z,100036.03
2024-01-04T06:30:04.612Z,100027.50
2024-01-04T06:30:37.193Z,100034.47
2024-01-04T06:31:08.783Z,100039.91
2024-01-04T06:31:40.299Z,100032.94